sensor_id;sensor_type;location;lat;lon;timestamp;P1;durP1;ratioP1;P2;durP2;ratioP2
33010;SDS011;19370;48.562;9.196;2024-01-30T01:06:01;16.10;;;8.38;;
33010;SDS011;19370;48.562;9.196;2024-01-30T01:08:54;15.60;;;8.40;;
33010;SDS011;19370;48.562;9.196;2024-01-30T01:11:37;15.32;;;8.23;;
33010;SDS011;19370;48.562;9.196;2024-01-30T01:14:14;16.67;;;9.13;;
33010;SDS011;19370;48.562;9.196;2024-01-30T01:16:46;16.30;;;7.97;;
33010;SDS011;19370;48.562;9.196;2024-01-30T01:19:27;16.73;;;8.30;;
33010;SDS011;19370;48.562;9.196;2024-01-30T01:21:57;14.80;;;8.13;;
33010;SDS011;19370;48.562;9.196;2024-01-30T01:24:23;17.63;;;8.98;;
33010;SDS011;19370;48.562;9.196;2024-01-30T01:26:49;16.42;;;8.95;;
33010;SDS011;19370;48.562;9.196;2024-01-30T01:29:15;15.83;;;8.60;;
33010;SDS011;19370;48.562;9.196;2024-01-30T01:31:41;17.75;;;8.55;;
33010;SDS011;19370;48.562;9.196;2024-01-30T01:34:12;18.77;;;8.63;;
33010;SDS011;19370;48.562;9.196;2024-01-30T01:36:38;17.25;;;8.82;;
33010;SDS011;19370;48.562;9.196;2024-01-30T01:39:04;17.87;;;8.80;;
33010;SDS011;19370;48.562;9.196;2024-01-30T01:41:30;17.52;;;8.30;;
33010;SDS011;19370;48.562;9.196;2024-01-30T01:43:58;16.52;;;8.45;;
33010;SDS011;19370;48.562;9.196;2024-01-30T01:46:27;17.05;;;8.65;;
33010;SDS011;19370;48.562;9.196;2024-01-30T01:48:57;16.60;;;8.23;;
33010;SDS011;19370;48.562;9.196;2024-01-30T01:51:24;18.03;;;8.97;;
33010;SDS011;19370;48.562;9.196;2024-01-30T01:53:53;15.73;;;8.48;;
33010;SDS011;19370;48.562;9.196;2024-01-30T01:56:21;18.70;;;8.65;;
33010;SDS011;19370;48.562;9.196;2024-01-30T01:58:51;18.67;;;8.85;;
33010;SDS011;19370;48.562;9.196;2024-01-30T02:01:20;18.25;;;8.73;;
33010;SDS011;19370;48.562;9.196;2024-01-30T02:03:46;16.03;;;8.53;;
33010;SDS011;19370;48.562;9.196;2024-01-30T02:06:18;16.77;;;8.30;;
33010;SDS011;19370;48.562;9.196;2024-01-30T02:08:44;14.77;;;8.40;;
33010;SDS011;19370;48.562;9.196;2024-01-30T02:11:09;15.27;;;8.73;;
33010;SDS011;19370;48.562;9.196;2024-01-30T02:13:36;17.88;;;8.10;;
33010;SDS011;19370;48.562;9.196;2024-01-30T02:16:02;15.65;;;7.70;;
33010;SDS011;19370;48.562;9.196;2024-01-30T02:18:28;14.53;;;8.03;;
33010;SDS011;19370;48.562;9.196;2024-01-30T02:20:54;17.90;;;8.80;;
33010;SDS011;19370;48.562;9.196;2024-01-30T02:23:23;14.60;;;8.00;;
33010;SDS011;19370;48.562;9.196;2024-01-30T02:25:53;15.60;;;8.82;;
33010;SDS011;19370;48.562;9.196;2024-01-30T02:28:19;17.13;;;9.27;;
33010;SDS011;19370;48.562;9.196;2024-01-30T02:30:45;15.70;;;8.50;;
33010;SDS011;19370;48.562;9.196;2024-01-30T02:33:12;15.82;;;8.35;;
33010;SDS011;19370;48.562;9.196;2024-01-30T02:35:38;15.83;;;7.97;;
33010;SDS011;19370;48.562;9.196;2024-01-30T02:38:04;18.60;;;9.02;;
33010;SDS011;19370;48.562;9.196;2024-01-30T05:45:14;16.92;;;8.52;;
33010;SDS011;19370;48.562;9.196;2024-01-30T05:47:40;17.95;;;8.55;;
33010;SDS011;19370;48.562;9.196;2024-01-30T05:50:05;17.23;;;9.27;;
33010;SDS011;19370;48.562;9.196;2024-01-30T05:52:33;15.05;;;8.48;;
33010;SDS011;19370;48.562;9.196;2024-01-30T05:54:59;15.63;;;8.32;;
33010;SDS011;19370;48.562;9.196;2024-01-30T05:57:24;15.57;;;8.20;;
33010;SDS011;19370;48.562;9.196;2024-01-30T05:59:50;22.10;;;9.33;;
33010;SDS011;19370;48.562;9.196;2024-01-30T06:02:17;15.95;;;7.93;;
33010;SDS011;19370;48.562;9.196;2024-01-30T06:04:42;15.60;;;8.20;;
33010;SDS011;19370;48.562;9.196;2024-01-30T06:07:09;15.05;;;7.78;;
33010;SDS011;19370;48.562;9.196;2024-01-30T06:09:35;16.23;;;8.40;;
33010;SDS011;19370;48.562;9.196;2024-01-30T06:12:00;14.20;;;7.63;;
33010;SDS011;19370;48.562;9.196;2024-01-30T06:14:26;16.13;;;7.90;;
33010;SDS011;19370;48.562;9.196;2024-01-30T06:16:51;15.23;;;8.25;;
33010;SDS011;19370;48.562;9.196;2024-01-30T06:19:17;15.17;;;8.23;;
33010;SDS011;19370;48.562;9.196;2024-01-30T06:21:42;15.50;;;7.90;;
33010;SDS011;19370;48.562;9.196;2024-01-30T06:24:08;16.97;;;8.40;;
33010;SDS011;19370;48.562;9.196;2024-01-30T06:26:33;14.27;;;7.82;;
33010;SDS011;19370;48.562;9.196;2024-01-30T06:28:59;16.98;;;8.25;;
33010;SDS011;19370;48.562;9.196;2024-01-30T06:31:25;15.43;;;8.03;;
33010;SDS011;19370;48.562;9.196;2024-01-30T06:33:50;13.93;;;7.50;;
33010;SDS011;19370;48.562;9.196;2024-01-30T06:36:16;15.18;;;8.18;;
33010;SDS011;19370;48.562;9.196;2024-01-30T06:38:41;17.07;;;8.20;;
33010;SDS011;19370;48.562;9.196;2024-01-30T06:41:07;15.47;;;7.50;;
33010;SDS011;19370;48.562;9.196;2024-01-30T06:43:32;16.33;;;7.78;;
33010;SDS011;19370;48.562;9.196;2024-01-30T06:45:58;14.00;;;7.37;;
33010;SDS011;19370;48.562;9.196;2024-01-30T06:48:24;15.15;;;8.50;;
33010;SDS011;19370;48.562;9.196;2024-01-30T06:50:50;16.30;;;8.30;;
33010;SDS011;19370;48.562;9.196;2024-01-30T06:53:18;15.43;;;7.88;;
33010;SDS011;19370;48.562;9.196;2024-01-30T06:55:44;16.27;;;7.80;;
33010;SDS011;19370;48.562;9.196;2024-01-30T06:58:10;16.90;;;7.45;;
33010;SDS011;19370;48.562;9.196;2024-01-30T07:00:35;16.37;;;7.97;;
33010;SDS011;19370;48.562;9.196;2024-01-30T07:03:01;15.70;;;7.90;;
33010;SDS011;19370;48.562;9.196;2024-01-30T07:05:26;13.87;;;7.50;;
33010;SDS011;19370;48.562;9.196;2024-01-30T07:07:52;15.33;;;7.87;;
33010;SDS011;19370;48.562;9.196;2024-01-30T07:10:18;15.27;;;7.75;;
33010;SDS011;19370;48.562;9.196;2024-01-30T07:12:43;15.03;;;8.03;;
33010;SDS011;19370;48.562;9.196;2024-01-30T07:15:09;16.80;;;7.37;;
33010;SDS011;19370;48.562;9.196;2024-01-30T07:17:35;14.77;;;8.27;;
33010;SDS011;19370;48.562;9.196;2024-01-30T07:20:01;17.70;;;8.25;;
33010;SDS011;19370;48.562;9.196;2024-01-30T07:22:28;15.20;;;8.20;;
33010;SDS011;19370;48.562;9.196;2024-01-30T07:24:55;16.50;;;7.30;;
33010;SDS011;19370;48.562;9.196;2024-01-30T07:27:20;14.73;;;7.55;;
33010;SDS011;19370;48.562;9.196;2024-01-30T07:29:46;14.95;;;8.05;;
33010;SDS011;19370;48.562;9.196;2024-01-30T07:32:12;14.17;;;7.23;;
33010;SDS011;19370;48.562;9.196;2024-01-30T07:34:37;14.68;;;7.60;;
33010;SDS011;19370;48.562;9.196;2024-01-30T07:37:03;14.03;;;7.40;;
33010;SDS011;19370;48.562;9.196;2024-01-30T07:39:28;16.77;;;8.50;;
33010;SDS011;19370;48.562;9.196;2024-01-30T07:41:54;17.60;;;9.45;;
33010;SDS011;19370;48.562;9.196;2024-01-30T07:44:20;20.70;;;10.77;;
33010;SDS011;19370;48.562;9.196;2024-01-30T07:46:46;18.30;;;9.70;;
33010;SDS011;19370;48.562;9.196;2024-01-30T07:49:11;15.03;;;7.90;;
33010;SDS011;19370;48.562;9.196;2024-01-30T07:51:39;14.80;;;7.55;;
33010;SDS011;19370;48.562;9.196;2024-01-30T07:54:04;15.03;;;7.77;;
33010;SDS011;19370;48.562;9.196;2024-01-30T07:56:30;14.68;;;7.38;;
33010;SDS011;19370;48.562;9.196;2024-01-30T07:58:56;15.67;;;7.63;;
33010;SDS011;19370;48.562;9.196;2024-01-30T08:01:21;13.20;;;6.97;;
33010;SDS011;19370;48.562;9.196;2024-01-30T08:03:47;14.60;;;7.07;;
33010;SDS011;19370;48.562;9.196;2024-01-30T08:06:12;14.23;;;6.27;;
33010;SDS011;19370;48.562;9.196;2024-01-30T08:08:38;13.13;;;6.63;;
33010;SDS011;19370;48.562;9.196;2024-01-30T08:11:03;13.48;;;6.95;;
33010;SDS011;19370;48.562;9.196;2024-01-30T08:13:29;13.67;;;6.73;;
33010;SDS011;19370;48.562;9.196;2024-01-30T08:15:54;13.43;;;7.80;;
33010;SDS011;19370;48.562;9.196;2024-01-30T08:18:20;13.87;;;7.30;;
33010;SDS011;19370;48.562;9.196;2024-01-30T08:20:46;13.40;;;6.70;;
33010;SDS011;19370;48.562;9.196;2024-01-30T08:23:11;14.50;;;8.30;;
33010;SDS011;19370;48.562;9.196;2024-01-30T08:25:37;15.63;;;8.03;;
33010;SDS011;19370;48.562;9.196;2024-01-30T08:28:03;13.20;;;7.10;;
33010;SDS011;19370;48.562;9.196;2024-01-30T08:30:29;12.95;;;6.70;;
33010;SDS011;19370;48.562;9.196;2024-01-30T08:32:54;12.35;;;7.03;;
33010;SDS011;19370;48.562;9.196;2024-01-30T08:35:20;12.68;;;7.20;;
33010;SDS011;19370;48.562;9.196;2024-01-30T08:37:45;14.80;;;7.70;;
33010;SDS011;19370;48.562;9.196;2024-01-30T08:40:11;13.95;;;6.60;;
33010;SDS011;19370;48.562;9.196;2024-01-30T08:42:36;14.07;;;6.68;;
33010;SDS011;19370;48.562;9.196;2024-01-30T08:45:02;12.43;;;6.13;;
33010;SDS011;19370;48.562;9.196;2024-01-30T08:47:29;12.10;;;5.43;;
33010;SDS011;19370;48.562;9.196;2024-01-30T08:49:56;10.60;;;5.53;;
33010;SDS011;19370;48.562;9.196;2024-01-30T08:52:21;11.07;;;5.17;;
33010;SDS011;19370;48.562;9.196;2024-01-30T08:54:47;17.53;;;7.73;;
33010;SDS011;19370;48.562;9.196;2024-01-30T08:57:12;15.50;;;7.10;;
33010;SDS011;19370;48.562;9.196;2024-01-30T08:59:38;13.27;;;6.70;;
33010;SDS011;19370;48.562;9.196;2024-01-30T09:02:04;14.27;;;7.55;;
33010;SDS011;19370;48.562;9.196;2024-01-30T09:04:30;13.57;;;7.23;;
33010;SDS011;19370;48.562;9.196;2024-01-30T09:06:55;11.77;;;6.47;;
33010;SDS011;19370;48.562;9.196;2024-01-30T09:09:21;16.63;;;7.30;;
33010;SDS011;19370;48.562;9.196;2024-01-30T09:11:47;12.68;;;6.60;;
33010;SDS011;19370;48.562;9.196;2024-01-30T09:14:12;14.75;;;7.80;;
33010;SDS011;19370;48.562;9.196;2024-01-30T09:16:38;14.03;;;7.10;;
33010;SDS011;19370;48.562;9.196;2024-01-30T09:19:04;12.52;;;7.18;;
33010;SDS011;19370;48.562;9.196;2024-01-30T09:24:05;13.07;;;6.93;;
33010;SDS011;19370;48.562;9.196;2024-01-30T09:26:31;12.90;;;6.75;;
33010;SDS011;19370;48.562;9.196;2024-01-30T09:28:56;13.77;;;7.33;;
33010;SDS011;19370;48.562;9.196;2024-01-30T09:31:22;14.07;;;7.00;;
33010;SDS011;19370;48.562;9.196;2024-01-30T09:33:48;12.30;;;6.83;;
33010;SDS011;19370;48.562;9.196;2024-01-30T09:36:14;15.40;;;7.80;;
33010;SDS011;19370;48.562;9.196;2024-01-30T09:38:44;14.40;;;7.38;;
33010;SDS011;19370;48.562;9.196;2024-01-30T09:41:10;13.60;;;7.30;;
33010;SDS011;19370;48.562;9.196;2024-01-30T09:43:37;14.13;;;7.57;;
33010;SDS011;19370;48.562;9.196;2024-01-30T09:46:04;11.73;;;6.90;;
33010;SDS011;19370;48.562;9.196;2024-01-30T09:48:32;12.45;;;7.22;;
33010;SDS011;19370;48.562;9.196;2024-01-30T09:50:59;14.75;;;7.35;;
33010;SDS011;19370;48.562;9.196;2024-01-30T09:53:25;13.95;;;6.93;;
33010;SDS011;19370;48.562;9.196;2024-01-30T09:55:56;14.70;;;7.63;;
33010;SDS011;19370;48.562;9.196;2024-01-30T09:58:24;14.75;;;7.72;;
33010;SDS011;19370;48.562;9.196;2024-01-30T10:00:51;13.52;;;7.85;;
33010;SDS011;19370;48.562;9.196;2024-01-30T10:03:18;14.88;;;7.90;;
33010;SDS011;19370;48.562;9.196;2024-01-30T10:05:44;13.77;;;7.25;;
33010;SDS011;19370;48.562;9.196;2024-01-30T10:08:20;13.27;;;7.50;;
33010;SDS011;19370;48.562;9.196;2024-01-30T10:10:46;14.05;;;8.02;;
33010;SDS011;19370;48.562;9.196;2024-01-30T10:13:12;14.45;;;7.72;;
33010;SDS011;19370;48.562;9.196;2024-01-30T10:15:38;14.93;;;8.10;;
33010;SDS011;19370;48.562;9.196;2024-01-30T10:18:05;15.20;;;7.95;;
33010;SDS011;19370;48.562;9.196;2024-01-30T10:20:31;13.83;;;7.03;;
33010;SDS011;19370;48.562;9.196;2024-01-30T10:22:57;14.55;;;7.32;;
33010;SDS011;19370;48.562;9.196;2024-01-30T10:25:25;15.52;;;7.80;;
33010;SDS011;19370;48.562;9.196;2024-01-30T10:27:54;13.82;;;7.35;;
33010;SDS011;19370;48.562;9.196;2024-01-30T10:30:26;12.88;;;7.38;;
33010;SDS011;19370;48.562;9.196;2024-01-30T10:33:16;13.97;;;7.60;;
33010;SDS011;19370;48.562;9.196;2024-01-30T10:35:42;13.15;;;7.05;;
33010;SDS011;19370;48.562;9.196;2024-01-30T10:38:08;14.73;;;7.85;;
33010;SDS011;19370;48.562;9.196;2024-01-30T10:40:36;13.70;;;8.18;;
33010;SDS011;19370;48.562;9.196;2024-01-30T10:43:04;15.93;;;7.83;;
33010;SDS011;19370;48.562;9.196;2024-01-30T10:45:33;14.00;;;7.40;;
33010;SDS011;19370;48.562;9.196;2024-01-30T10:48:02;13.95;;;7.57;;
33010;SDS011;19370;48.562;9.196;2024-01-30T10:50:30;13.63;;;7.47;;
33010;SDS011;19370;48.562;9.196;2024-01-30T10:53:13;15.05;;;8.15;;
33010;SDS011;19370;48.562;9.196;2024-01-30T10:56:22;13.13;;;7.17;;
33010;SDS011;19370;48.562;9.196;2024-01-30T10:58:54;14.25;;;7.68;;
33010;SDS011;19370;48.562;9.196;2024-01-30T11:01:21;14.90;;;7.65;;
33010;SDS011;19370;48.562;9.196;2024-01-30T11:03:50;14.50;;;7.70;;
33010;SDS011;19370;48.562;9.196;2024-01-30T11:06:23;14.32;;;7.65;;
33010;SDS011;19370;48.562;9.196;2024-01-30T11:09:02;14.40;;;7.83;;
33010;SDS011;19370;48.562;9.196;2024-01-30T11:11:32;14.88;;;7.82;;
33010;SDS011;19370;48.562;9.196;2024-01-30T11:14:24;14.18;;;7.90;;
33010;SDS011;19370;48.562;9.196;2024-01-30T11:16:57;15.98;;;8.27;;
33010;SDS011;19370;48.562;9.196;2024-01-30T11:19:26;14.18;;;7.65;;
33010;SDS011;19370;48.562;9.196;2024-01-30T11:21:54;14.53;;;7.60;;
33010;SDS011;19370;48.562;9.196;2024-01-30T11:24:22;14.32;;;8.02;;
33010;SDS011;19370;48.562;9.196;2024-01-30T11:26:49;14.95;;;7.68;;
33010;SDS011;19370;48.562;9.196;2024-01-30T11:29:16;14.00;;;7.60;;
33010;SDS011;19370;48.562;9.196;2024-01-30T11:31:52;13.93;;;7.28;;
33010;SDS011;19370;48.562;9.196;2024-01-30T11:34:19;14.87;;;7.80;;
33010;SDS011;19370;48.562;9.196;2024-01-30T11:36:48;13.85;;;7.50;;
33010;SDS011;19370;48.562;9.196;2024-01-30T11:39:23;15.07;;;7.03;;
33010;SDS011;19370;48.562;9.196;2024-01-30T11:41:50;15.30;;;7.10;;
33010;SDS011;19370;48.562;9.196;2024-01-30T11:44:19;13.43;;;6.85;;
33010;SDS011;19370;48.562;9.196;2024-01-30T11:46:46;14.13;;;7.07;;
33010;SDS011;19370;48.562;9.196;2024-01-30T11:49:16;14.75;;;7.50;;
33010;SDS011;19370;48.562;9.196;2024-01-30T11:51:47;14.30;;;6.68;;
33010;SDS011;19370;48.562;9.196;2024-01-30T11:54:14;15.20;;;7.20;;
33010;SDS011;19370;48.562;9.196;2024-01-30T11:56:41;14.23;;;6.72;;
33010;SDS011;19370;48.562;9.196;2024-01-30T11:59:08;12.57;;;6.83;;
33010;SDS011;19370;48.562;9.196;2024-01-30T12:01:36;13.60;;;7.20;;
33010;SDS011;19370;48.562;9.196;2024-01-30T12:04:04;14.73;;;7.57;;
33010;SDS011;19370;48.562;9.196;2024-01-30T12:06:34;12.45;;;7.00;;
33010;SDS011;19370;48.562;9.196;2024-01-30T12:09:00;12.80;;;7.10;;
33010;SDS011;19370;48.562;9.196;2024-01-30T12:11:32;15.70;;;7.65;;
33010;SDS011;19370;48.562;9.196;2024-01-30T12:13:58;13.77;;;7.10;;
33010;SDS011;19370;48.562;9.196;2024-01-30T12:16:24;13.93;;;7.60;;
33010;SDS011;19370;48.562;9.196;2024-01-30T12:18:58;14.82;;;7.40;;
33010;SDS011;19370;48.562;9.196;2024-01-30T12:21:25;14.07;;;6.95;;
33010;SDS011;19370;48.562;9.196;2024-01-30T12:23:51;13.63;;;6.50;;
33010;SDS011;19370;48.562;9.196;2024-01-30T12:26:17;12.20;;;6.40;;
33010;SDS011;19370;48.562;9.196;2024-01-30T12:28:50;14.13;;;6.35;;
33010;SDS011;19370;48.562;9.196;2024-01-30T12:31:17;12.88;;;6.20;;
33010;SDS011;19370;48.562;9.196;2024-01-30T12:33:43;12.40;;;6.60;;
33010;SDS011;19370;48.562;9.196;2024-01-30T12:36:08;12.60;;;6.93;;
33010;SDS011;19370;48.562;9.196;2024-01-30T12:38:34;14.07;;;6.73;;
33010;SDS011;19370;48.562;9.196;2024-01-30T12:41:00;13.35;;;7.00;;
33010;SDS011;19370;48.562;9.196;2024-01-30T12:43:25;13.65;;;7.20;;
33010;SDS011;19370;48.562;9.196;2024-01-30T12:45:55;14.43;;;7.20;;
33010;SDS011;19370;48.562;9.196;2024-01-30T12:48:21;12.25;;;6.70;;
33010;SDS011;19370;48.562;9.196;2024-01-30T12:50:47;14.43;;;7.40;;
33010;SDS011;19370;48.562;9.196;2024-01-30T12:53:12;12.70;;;7.17;;
33010;SDS011;19370;48.562;9.196;2024-01-30T12:55:38;13.50;;;7.20;;
33010;SDS011;19370;48.562;9.196;2024-01-30T12:58:04;13.95;;;7.20;;
33010;SDS011;19370;48.562;9.196;2024-01-30T13:00:31;13.52;;;7.22;;
33010;SDS011;19370;48.562;9.196;2024-01-30T13:02:59;12.30;;;6.80;;
33010;SDS011;19370;48.562;9.196;2024-01-30T13:05:25;13.95;;;7.00;;
33010;SDS011;19370;48.562;9.196;2024-01-30T13:07:50;12.30;;;6.75;;
33010;SDS011;19370;48.562;9.196;2024-01-30T13:10:18;12.23;;;6.40;;
33010;SDS011;19370;48.562;9.196;2024-01-30T13:12:44;12.07;;;5.72;;
33010;SDS011;19370;48.562;9.196;2024-01-30T13:15:09;11.10;;;5.63;;
33010;SDS011;19370;48.562;9.196;2024-01-30T13:17:36;13.50;;;5.78;;
33010;SDS011;19370;48.562;9.196;2024-01-30T13:20:03;12.80;;;6.22;;
33010;SDS011;19370;48.562;9.196;2024-01-30T13:22:31;12.18;;;6.45;;
33010;SDS011;19370;48.562;9.196;2024-01-30T13:24:56;12.00;;;6.10;;
33010;SDS011;19370;48.562;9.196;2024-01-30T13:27:23;12.63;;;6.70;;
33010;SDS011;19370;48.562;9.196;2024-01-30T13:29:49;13.43;;;6.60;;
33010;SDS011;19370;48.562;9.196;2024-01-30T13:32:14;13.15;;;6.70;;
33010;SDS011;19370;48.562;9.196;2024-01-30T13:34:40;13.03;;;6.00;;
33010;SDS011;19370;48.562;9.196;2024-01-30T13:37:06;13.98;;;6.20;;
33010;SDS011;19370;48.562;9.196;2024-01-30T13:42:05;10.85;;;5.10;;
33010;SDS011;19370;48.562;9.196;2024-01-30T13:44:34;10.30;;;5.10;;
33010;SDS011;19370;48.562;9.196;2024-01-30T13:47:01;10.73;;;5.30;;
33010;SDS011;19370;48.562;9.196;2024-01-30T13:49:29;10.63;;;4.88;;
33010;SDS011;19370;48.562;9.196;2024-01-30T13:51:59;10.27;;;4.70;;
33010;SDS011;19370;48.562;9.196;2024-01-30T13:54:25;10.80;;;5.00;;
33010;SDS011;19370;48.562;9.196;2024-01-30T13:56:53;9.90;;;4.60;;
33010;SDS011;19370;48.562;9.196;2024-01-30T13:59:21;11.07;;;4.60;;
33010;SDS011;19370;48.562;9.196;2024-01-30T14:01:50;9.85;;;4.55;;
33010;SDS011;19370;48.562;9.196;2024-01-30T14:04:16;9.37;;;4.23;;
33010;SDS011;19370;48.562;9.196;2024-01-30T14:06:41;10.45;;;4.35;;
33010;SDS011;19370;48.562;9.196;2024-01-30T14:09:10;9.23;;;4.38;;
33010;SDS011;19370;48.562;9.196;2024-01-30T14:11:36;11.13;;;4.43;;
33010;SDS011;19370;48.562;9.196;2024-01-30T14:14:01;9.13;;;4.32;;
33010;SDS011;19370;48.562;9.196;2024-01-30T14:16:27;10.33;;;4.33;;
33010;SDS011;19370;48.562;9.196;2024-01-30T14:18:53;10.25;;;4.57;;
33010;SDS011;19370;48.562;9.196;2024-01-30T14:21:19;13.10;;;5.90;;
33010;SDS011;19370;48.562;9.196;2024-01-30T14:23:45;9.87;;;4.47;;
33010;SDS011;19370;48.562;9.196;2024-01-30T14:26:14;9.05;;;3.65;;
33010;SDS011;19370;48.562;9.196;2024-01-30T14:28:39;10.23;;;3.70;;
33010;SDS011;19370;48.562;9.196;2024-01-30T14:31:16;8.50;;;3.90;;
33010;SDS011;19370;48.562;9.196;2024-01-30T14:33:43;8.95;;;3.70;;
33010;SDS011;19370;48.562;9.196;2024-01-30T14:36:09;8.75;;;4.03;;
33010;SDS011;19370;48.562;9.196;2024-01-30T14:41:07;9.35;;;4.20;;
33010;SDS011;19370;48.562;9.196;2024-01-30T14:43:33;10.20;;;4.22;;
33010;SDS011;19370;48.562;9.196;2024-01-30T14:45:58;10.53;;;4.83;;
33010;SDS011;19370;48.562;9.196;2024-01-30T14:48:28;11.20;;;4.57;;
33010;SDS011;19370;48.562;9.196;2024-01-30T14:50:53;13.02;;;4.90;;
33010;SDS011;19370;48.562;9.196;2024-01-30T14:53:19;9.70;;;5.03;;
33010;SDS011;19370;48.562;9.196;2024-01-30T14:55:55;12.60;;;5.40;;
33010;SDS011;19370;48.562;9.196;2024-01-30T14:58:27;10.15;;;4.57;;
33010;SDS011;19370;48.562;9.196;2024-01-30T15:03:21;10.52;;;4.45;;
33010;SDS011;19370;48.562;9.196;2024-01-30T15:05:46;13.90;;;4.97;;
33010;SDS011;19370;48.562;9.196;2024-01-30T15:08:12;11.60;;;4.88;;
33010;SDS011;19370;48.562;9.196;2024-01-30T15:10:39;9.80;;;4.80;;
33010;SDS011;19370;48.562;9.196;2024-01-30T15:16:23;10.57;;;5.40;;
33010;SDS011;19370;48.562;9.196;2024-01-30T15:18:49;10.57;;;5.00;;
33010;SDS011;19370;48.562;9.196;2024-01-30T15:21:14;11.23;;;5.07;;
33010;SDS011;19370;48.562;9.196;2024-01-30T15:23:45;13.20;;;6.10;;
33010;SDS011;19370;48.562;9.196;2024-01-30T15:26:11;10.82;;;5.78;;
33010;SDS011;19370;48.562;9.196;2024-01-30T15:28:36;11.33;;;4.80;;
33010;SDS011;19370;48.562;9.196;2024-01-30T15:31:03;9.80;;;4.85;;
33010;SDS011;19370;48.562;9.196;2024-01-30T15:33:31;12.13;;;5.47;;
33010;SDS011;19370;48.562;9.196;2024-01-30T15:36:00;11.13;;;4.93;;
33010;SDS011;19370;48.562;9.196;2024-01-30T15:38:32;11.38;;;5.00;;
33010;SDS011;19370;48.562;9.196;2024-01-30T15:40:58;11.95;;;4.88;;
33010;SDS011;19370;48.562;9.196;2024-01-30T15:43:24;10.57;;;5.10;;
33010;SDS011;19370;48.562;9.196;2024-01-30T15:45:49;11.68;;;5.40;;
33010;SDS011;19370;48.562;9.196;2024-01-30T15:48:16;12.82;;;5.07;;
33010;SDS011;19370;48.562;9.196;2024-01-30T15:50:43;11.33;;;5.30;;
33010;SDS011;19370;48.562;9.196;2024-01-30T15:55:57;9.93;;;4.65;;
33010;SDS011;19370;48.562;9.196;2024-01-30T15:58:23;10.45;;;4.72;;
33010;SDS011;19370;48.562;9.196;2024-01-30T16:00:52;10.00;;;4.60;;
33010;SDS011;19370;48.562;9.196;2024-01-30T16:03:17;11.43;;;5.20;;
33010;SDS011;19370;48.562;9.196;2024-01-30T16:05:43;17.07;;;5.03;;
33010;SDS011;19370;48.562;9.196;2024-01-30T16:08:08;11.15;;;4.80;;
33010;SDS011;19370;48.562;9.196;2024-01-30T16:10:34;11.60;;;5.40;;
33010;SDS011;19370;48.562;9.196;2024-01-30T16:15:33;13.38;;;6.00;;
33010;SDS011;19370;48.562;9.196;2024-01-30T16:17:58;11.68;;;5.47;;
33010;SDS011;19370;48.562;9.196;2024-01-30T16:20:24;11.23;;;5.60;;
33010;SDS011;19370;48.562;9.196;2024-01-30T16:22:49;13.15;;;5.47;;
33010;SDS011;19370;48.562;9.196;2024-01-30T16:25:17;11.73;;;5.70;;
33010;SDS011;19370;48.562;9.196;2024-01-30T16:27:44;11.52;;;4.90;;
33010;SDS011;19370;48.562;9.196;2024-01-30T16:33:10;12.90;;;5.63;;
33010;SDS011;19370;48.562;9.196;2024-01-30T16:35:37;12.00;;;5.10;;
33010;SDS011;19370;48.562;9.196;2024-01-30T16:41:45;11.38;;;5.03;;
33010;SDS011;19370;48.562;9.196;2024-01-30T17:53:44;15.63;;;9.33;;
33010;SDS011;19370;48.562;9.196;2024-01-30T17:56:09;14.73;;;9.02;;
33010;SDS011;19370;48.562;9.196;2024-01-30T17:58:36;48.50;;;30.33;;
33010;SDS011;19370;48.562;9.196;2024-01-30T18:01:02;40.72;;;25.58;;
33010;SDS011;19370;48.562;9.196;2024-01-30T18:03:28;42.30;;;26.47;;
33010;SDS011;19370;48.562;9.196;2024-01-30T18:05:58;29.17;;;13.25;;
33010;SDS011;19370;48.562;9.196;2024-01-30T18:08:25;68.60;;;39.30;;
33010;SDS011;19370;48.562;9.196;2024-01-30T18:10:51;63.83;;;34.33;;
33010;SDS011;19370;48.562;9.196;2024-01-30T18:13:22;86.78;;;43.10;;
33010;SDS011;19370;48.562;9.196;2024-01-30T18:15:48;24.87;;;15.00;;
33010;SDS011;19370;48.562;9.196;2024-01-30T18:18:19;18.63;;;8.75;;
33010;SDS011;19370;48.562;9.196;2024-01-30T18:20:56;16.50;;;10.43;;
33010;SDS011;19370;48.562;9.196;2024-01-30T18:23:24;16.50;;;9.88;;
33010;SDS011;19370;48.562;9.196;2024-01-30T18:25:50;14.82;;;9.07;;
33010;SDS011;19370;48.562;9.196;2024-01-30T18:28:24;18.57;;;12.47;;
33010;SDS011;19370;48.562;9.196;2024-01-30T18:30:57;16.80;;;10.70;;
33010;SDS011;19370;48.562;9.196;2024-01-30T18:33:29;14.27;;;8.23;;
33010;SDS011;19370;48.562;9.196;2024-01-30T18:35:55;18.20;;;9.80;;
33010;SDS011;19370;48.562;9.196;2024-01-30T18:38:20;16.33;;;8.77;;
33010;SDS011;19370;48.562;9.196;2024-01-30T18:40:52;18.88;;;10.02;;
33010;SDS011;19370;48.562;9.196;2024-01-30T18:43:20;87.77;;;45.33;;
33010;SDS011;19370;48.562;9.196;2024-01-30T18:45:52;16.83;;;9.20;;
33010;SDS011;19370;48.562;9.196;2024-01-30T18:48:19;14.02;;;8.80;;
33010;SDS011;19370;48.562;9.196;2024-01-30T18:50:49;15.67;;;9.20;;
33010;SDS011;19370;48.562;9.196;2024-01-30T18:53:15;15.98;;;7.90;;
33010;SDS011;19370;48.562;9.196;2024-01-30T18:55:41;22.00;;;17.38;;
33010;SDS011;19370;48.562;9.196;2024-01-30T19:00:58;14.50;;;8.23;;
33010;SDS011;19370;48.562;9.196;2024-01-30T19:03:27;13.20;;;6.93;;
33010;SDS011;19370;48.562;9.196;2024-01-30T19:06:06;15.75;;;7.13;;
33010;SDS011;19370;48.562;9.196;2024-01-30T19:08:32;14.17;;;7.30;;
33010;SDS011;19370;48.562;9.196;2024-01-30T19:11:02;14.35;;;7.00;;
33010;SDS011;19370;48.562;9.196;2024-01-30T19:13:28;13.00;;;7.00;;
33010;SDS011;19370;48.562;9.196;2024-01-30T19:15:54;12.97;;;6.80;;
33010;SDS011;19370;48.562;9.196;2024-01-30T19:18:21;13.00;;;7.88;;
33010;SDS011;19370;48.562;9.196;2024-01-30T19:20:47;15.95;;;7.30;;
33010;SDS011;19370;48.562;9.196;2024-01-30T19:23:14;19.25;;;7.55;;
33010;SDS011;19370;48.562;9.196;2024-01-30T19:25:40;14.40;;;7.32;;
33010;SDS011;19370;48.562;9.196;2024-01-30T19:28:05;13.33;;;6.03;;
33010;SDS011;19370;48.562;9.196;2024-01-30T19:30:40;12.55;;;6.05;;
33010;SDS011;19370;48.562;9.196;2024-01-30T19:33:06;13.75;;;6.53;;
33010;SDS011;19370;48.562;9.196;2024-01-30T19:35:32;12.60;;;5.90;;
33010;SDS011;19370;48.562;9.196;2024-01-30T19:38:02;12.52;;;6.30;;
33010;SDS011;19370;48.562;9.196;2024-01-30T19:40:27;14.85;;;6.50;;
33010;SDS011;19370;48.562;9.196;2024-01-30T19:42:53;15.07;;;7.10;;
33010;SDS011;19370;48.562;9.196;2024-01-30T19:45:22;17.23;;;7.30;;
33010;SDS011;19370;48.562;9.196;2024-01-30T19:47:47;16.00;;;8.60;;
33010;SDS011;19370;48.562;9.196;2024-01-30T19:50:13;14.25;;;8.20;;
33010;SDS011;19370;48.562;9.196;2024-01-30T19:52:39;17.50;;;8.57;;
33010;SDS011;19370;48.562;9.196;2024-01-30T19:55:14;17.08;;;8.52;;
33010;SDS011;19370;48.562;9.196;2024-01-30T19:57:40;15.55;;;7.80;;
33010;SDS011;19370;48.562;9.196;2024-01-30T20:03:04;16.75;;;8.00;;
33010;SDS011;19370;48.562;9.196;2024-01-30T20:05:30;16.02;;;7.85;;
33010;SDS011;19370;48.562;9.196;2024-01-30T20:07:55;14.33;;;7.90;;
33010;SDS011;19370;48.562;9.196;2024-01-30T20:10:27;17.13;;;8.38;;
33010;SDS011;19370;48.562;9.196;2024-01-30T20:12:53;15.90;;;8.50;;
33010;SDS011;19370;48.562;9.196;2024-01-30T20:18:24;17.48;;;11.73;;
33010;SDS011;19370;48.562;9.196;2024-01-30T20:20:51;15.97;;;9.13;;
33010;SDS011;19370;48.562;9.196;2024-01-30T20:23:17;20.30;;;10.30;;
33010;SDS011;19370;48.562;9.196;2024-01-30T20:25:43;16.63;;;8.40;;
33010;SDS011;19370;48.562;9.196;2024-01-30T20:28:09;15.63;;;8.27;;